sensor_id;sensor_type;location;lat;lon;timestamp;pressure;altitude;pressure_sealevel;temperature;humidity
21276;BME280;36472;52.170;20.884;2024-03-07T00:01:47;101447.16;;;5.57;55.00
21276;BME280;36472;52.170;20.884;2024-03-07T00:04:16;101450.47;;;5.62;55.20
21276;BME280;36472;52.170;20.884;2024-03-07T00:06:47;101452.09;;;5.67;55.62
21276;BME280;36472;52.170;20.884;2024-03-07T00:09:18;101458.69;;;5.49;54.55
21276;BME280;36472;52.170;20.884;2024-03-07T00:11:52;101454.97;;;5.57;54.78
21276;BME280;36472;52.170;20.884;2024-03-07T00:14:22;101449.69;;;5.60;54.43
21276;BME280;36472;52.170;20.884;2024-03-07T00:16:55;101448.22;;;5.50;54.07
21276;BME280;36472;52.170;20.884;2024-03-07T00:19:27;101447.59;;;5.40;54.30
21276;BME280;36472;52.170;20.884;2024-03-07T00:21:59;101445.81;;;5.42;55.07
21276;BME280;36472;52.170;20.884;2024-03-07T00:24:28;101456.13;;;5.47;55.02
21276;BME280;36472;52.170;20.884;2024-03-07T00:26:57;101448.03;;;5.56;55.04
21276;BME280;36472;52.170;20.884;2024-03-07T00:29:26;101448.69;;;5.65;55.42
21276;BME280;36472;52.170;20.884;2024-03-07T00:31:56;101447.63;;;5.70;55.74
21276;BME280;36472;52.170;20.884;2024-03-07T00:34:26;101449.28;;;5.74;55.83
21276;BME280;36472;52.170;20.884;2024-03-07T00:36:55;101444.09;;;5.73;56.46
21276;BME280;36472;52.170;20.884;2024-03-07T00:39:27;101441.66;;;5.67;55.80
21276;BME280;36472;52.170;20.884;2024-03-07T00:41:57;101452.91;;;5.69;56.10
21276;BME280;36472;52.170;20.884;2024-03-07T00:44:27;101439.66;;;5.76;56.15
21276;BME280;36472;52.170;20.884;2024-03-07T00:46:57;101452.69;;;5.76;56.28
21276;BME280;36472;52.170;20.884;2024-03-07T00:49:30;101443.16;;;5.75;55.19
21276;BME280;36472;52.170;20.884;2024-03-07T00:51:59;101445.03;;;5.70;55.63
21276;BME280;36472;52.170;20.884;2024-03-07T00:54:29;101446.81;;;5.70;56.25
21276;BME280;36472;52.170;20.884;2024-03-07T00:56:58;101444.53;;;5.57;55.54
21276;BME280;36472;52.170;20.884;2024-03-07T00:59:27;101439.53;;;5.50;56.29
21276;BME280;36472;52.170;20.884;2024-03-07T01:01:56;101444.53;;;5.57;55.54
21276;BME280;36472;52.170;20.884;2024-03-07T01:04:26;101447.16;;;5.57;55.65
21276;BME280;36472;52.170;20.884;2024-03-07T01:06:58;101450.78;;;5.52;55.63
21276;BME280;36472;52.170;20.884;2024-03-07T01:09:29;101443.72;;;5.55;56.65
21276;BME280;36472;52.170;20.884;2024-03-07T01:11:58;101446.31;;;5.57;56.17
21276;BME280;36472;52.170;20.884;2024-03-07T01:14:28;101443.81;;;5.52;56.14
21276;BME280;36472;52.170;20.884;2024-03-07T01:16:58;101447.56;;;5.42;55.54
21276;BME280;36472;52.170;20.884;2024-03-07T01:19:27;101444.13;;;5.41;56.01
21276;BME280;36472;52.170;20.884;2024-03-07T01:21:56;101443.16;;;5.44;56.11
21276;BME280;36472;52.170;20.884;2024-03-07T01:24:25;101441.31;;;5.48;55.94
21276;BME280;36472;52.170;20.884;2024-03-07T01:26:55;101444.69;;;5.51;56.23
21276;BME280;36472;52.170;20.884;2024-03-07T01:29:25;101444.03;;;5.43;56.59
21276;BME280;36472;52.170;20.884;2024-03-07T01:31:54;101444.69;;;5.51;57.23
21276;BME280;36472;52.170;20.884;2024-03-07T01:34:22;101449.03;;;5.52;56.98
21276;BME280;36472;52.170;20.884;2024-03-07T01:36:52;101452.53;;;5.51;57.67
21276;BME280;36472;52.170;20.884;2024-03-07T01:39:20;101447.88;;;5.31;58.16
21276;BME280;36472;52.170;20.884;2024-03-07T01:41:51;101446.44;;;5.19;57.30
21276;BME280;36472;52.170;20.884;2024-03-07T01:44:21;101451.53;;;5.22;57.86
21276;BME280;36472;52.170;20.884;2024-03-07T01:46:51;101447.25;;;5.21;58.79
21276;BME280;36472;52.170;20.884;2024-03-07T01:49:20;101443.28;;;5.06;58.79
21276;BME280;36472;52.170;20.884;2024-03-07T01:56:22;101448.38;;;5.11;59.53
21276;BME280;36472;52.170;20.884;2024-03-07T01:58:53;101449.22;;;5.12;59.42
21276;BME280;36472;52.170;20.884;2024-03-07T02:01:26;101451.78;;;5.13;59.78
21276;BME280;36472;52.170;20.884;2024-03-07T02:03:57;101451.88;;;5.10;60.92
21276;BME280;36472;52.170;20.884;2024-03-07T02:06:26;101450.91;;;5.14;60.53
21276;BME280;36472;52.170;20.884;2024-03-07T02:08:57;101446.50;;;5.16;60.13
21276;BME280;36472;52.170;20.884;2024-03-07T02:11:26;101443.94;;;5.15;60.18
21276;BME280;36472;52.170;20.884;2024-03-07T02:13:55;101450.69;;;5.22;60.24
21276;BME280;36472;52.170;20.884;2024-03-07T02:16:26;101437.69;;;5.20;60.25
21276;BME280;36472;52.170;20.884;2024-03-07T02:18:55;101446.25;;;5.25;61.39
21276;BME280;36472;52.170;20.884;2024-03-07T02:21:26;101444.44;;;5.28;61.20
21276;BME280;36472;52.170;20.884;2024-03-07T02:23:56;101457.50;;;5.28;61.34
21276;BME280;36472;52.170;20.884;2024-03-07T02:26:26;101447.16;;;5.24;61.34
21276;BME280;36472;52.170;20.884;2024-03-07T02:28:55;101443.75;;;5.21;61.40
21276;BME280;36472;52.170;20.884;2024-03-07T02:31:24;101449.94;;;5.18;61.51
21276;BME280;36472;52.170;20.884;2024-03-07T02:34:03;101441.44;;;5.10;62.30
21276;BME280;36472;52.170;20.884;2024-03-07T02:36:34;101450.00;;;5.15;62.47
21276;BME280;36472;52.170;20.884;2024-03-07T02:39:03;101449.22;;;5.12;61.34
21276;BME280;36472;52.170;20.884;2024-03-07T02:41:34;101450.06;;;5.12;62.12
21276;BME280;36472;52.170;20.884;2024-03-07T02:44:03;101451.88;;;5.10;61.57
21276;BME280;36472;52.170;20.884;2024-03-07T02:46:32;101458.94;;;5.05;60.84
21276;BME280;36472;52.170;20.884;2024-03-07T02:49:01;101457.28;;;5.02;61.00
21276;BME280;36472;52.170;20.884;2024-03-07T02:51:30;101453.81;;;5.02;60.80
21276;BME280;36472;52.170;20.884;2024-03-07T02:54:01;101445.38;;;4.92;61.54
21276;BME280;36472;52.170;20.884;2024-03-07T02:56:33;101455.78;;;4.94;62.16
21276;BME280;36472;52.170;20.884;2024-03-07T02:59:03;101454.13;;;4.90;61.19
21276;BME280;36472;52.170;20.884;2024-03-07T03:01:32;101449.94;;;4.84;61.01
21276;BME280;36472;52.170;20.884;2024-03-07T03:04:01;101456.03;;;4.81;62.25
21276;BME280;36472;52.170;20.884;2024-03-07T03:06:30;101456.25;;;4.74;61.13
21276;BME280;36472;52.170;20.884;2024-03-07T03:09:01;101455.44;;;4.72;61.59
21276;BME280;36472;52.170;20.884;2024-03-07T03:11:33;101450.38;;;4.65;61.64
21276;BME280;36472;52.170;20.884;2024-03-07T03:14:02;101450.47;;;4.61;61.77
21276;BME280;36472;52.170;20.884;2024-03-07T03:16:31;101449.72;;;4.56;62.78
21276;BME280;36472;52.170;20.884;2024-03-07T03:23:45;101463.09;;;4.40;62.49
21276;BME280;36472;52.170;20.884;2024-03-07T03:26:17;101462.34;;;4.35;61.51
21276;BME280;36472;52.170;20.884;2024-03-07T03:28:46;101457.31;;;4.27;63.62
21276;BME280;36472;52.170;20.884;2024-03-07T03:31:15;101456.56;;;4.22;62.74
21276;BME280;36472;52.170;20.884;2024-03-07T03:33:44;101461.09;;;4.12;62.79
21276;BME280;36472;52.170;20.884;2024-03-07T03:36:14;101455.97;;;4.08;62.99
21276;BME280;36472;52.170;20.884;2024-03-07T03:38:43;101467.47;;;3.98;62.20
21276;BME280;36472;52.170;20.884;2024-03-07T03:41:16;101466.72;;;3.91;63.10
21276;BME280;36472;52.170;20.884;2024-03-07T03:43:45;101472.09;;;3.85;63.34
21276;BME280;36472;52.170;20.884;2024-03-07T03:46:15;101468.81;;;3.75;63.26
21276;BME280;36472;52.170;20.884;2024-03-07T03:48:44;101465.59;;;3.62;63.82
21276;BME280;36472;52.170;20.884;2024-03-07T03:51:13;101475.13;;;3.62;65.02
21276;BME280;36472;52.170;20.884;2024-03-07T03:53:43;101468.31;;;3.54;64.79
21276;BME280;36472;52.170;20.884;2024-03-07T03:56:12;101469.25;;;3.52;65.07
21276;BME280;36472;52.170;20.884;2024-03-07T03:58:42;101469.31;;;3.49;64.68
21276;BME280;36472;52.170;20.884;2024-03-07T04:01:11;101476.34;;;3.44;65.12
21276;BME280;36472;52.170;20.884;2024-03-07T04:03:42;101473.88;;;3.34;64.89
21276;BME280;36472;52.170;20.884;2024-03-07T04:06:14;101468.88;;;3.25;65.14
21276;BME280;36472;52.170;20.884;2024-03-07T04:08:43;101473.34;;;3.17;65.42
21276;BME280;36472;52.170;20.884;2024-03-07T04:11:12;101457.97;;;3.05;66.89
21276;BME280;36472;52.170;20.884;2024-03-07T04:13:45;101446.06;;;2.91;66.55
21276;BME280;36472;52.170;20.884;2024-03-07T04:16:14;101469.31;;;2.99;66.27
21276;BME280;36472;52.170;20.884;2024-03-07T04:18:45;101468.53;;;2.94;66.37
21276;BME280;36472;52.170;20.884;2024-03-07T04:21:14;101470.38;;;2.87;67.01
21276;BME280;36472;52.170;20.884;2024-03-07T04:23:43;101476.50;;;2.83;67.31
21276;BME280;36472;52.170;20.884;2024-03-07T04:26:13;101473.03;;;2.83;67.97
21276;BME280;36472;52.170;20.884;2024-03-07T04:28:44;101473.16;;;2.75;67.98
21276;BME280;36472;52.170;20.884;2024-03-07T04:31:13;101475.81;;;2.72;67.67
21276;BME280;36472;52.170;20.884;2024-03-07T04:33:42;101479.34;;;2.66;67.93
21276;BME280;36472;52.170;20.884;2024-03-07T04:36:11;101469.09;;;2.58;68.94
21276;BME280;36472;52.170;20.884;2024-03-07T04:38:40;101482.06;;;2.58;69.07
21276;BME280;36472;52.170;20.884;2024-03-07T04:41:13;101476.91;;;2.55;68.08
21276;BME280;36472;52.170;20.884;2024-03-07T04:43:44;101467.56;;;2.45;69.68
21276;BME280;36472;52.170;20.884;2024-03-07T04:46:13;101477.97;;;2.42;70.09
21276;BME280;36472;52.170;20.884;2024-03-07T04:48:42;101481.50;;;2.38;70.59
21276;BME280;36472;52.170;20.884;2024-03-07T04:51:11;101474.56;;;2.37;70.86
21276;BME280;36472;52.170;20.884;2024-03-07T04:53:42;101474.69;;;2.31;69.71
21276;BME280;36472;52.170;20.884;2024-03-07T04:56:11;101480.72;;;2.30;70.73
21276;BME280;36472;52.170;20.884;2024-03-07T04:58:43;101486.88;;;2.24;70.21
21276;BME280;36472;52.170;20.884;2024-03-07T05:05:44;101493.91;;;2.16;70.78
21276;BME280;36472;52.170;20.884;2024-03-07T05:08:13;101493.09;;;2.11;70.98
21276;BME280;36472;52.170;20.884;2024-03-07T05:10:43;101488.88;;;2.03;71.42
21276;BME280;36472;52.170;20.884;2024-03-07T05:13:12;101494.09;;;2.00;71.45
21276;BME280;36472;52.170;20.884;2024-03-07T05:15:43;101502.72;;;2.01;71.49
21276;BME280;36472;52.170;20.884;2024-03-07T05:18:12;101499.28;;;2.00;71.23
21276;BME280;36472;52.170;20.884;2024-03-07T05:20:42;101502.75;;;1.96;71.50
21276;BME280;36472;52.170;20.884;2024-03-07T05:23:11;101500.25;;;1.90;72.19
21276;BME280;36472;52.170;20.884;2024-03-07T05:25:44;101509.69;;;1.96;72.25
21276;BME280;36472;52.170;20.884;2024-03-07T05:28:14;101507.13;;;1.93;71.79
21276;BME280;36472;52.170;20.884;2024-03-07T05:30:44;101512.28;;;1.96;72.98
21276;BME280;36472;52.170;20.884;2024-03-07T05:33:15;101510.56;;;1.95;73.29
21276;BME280;36472;52.170;20.884;2024-03-07T05:35:46;101509.66;;;1.97;71.86
21276;BME280;36472;52.170;20.884;2024-03-07T05:38:15;101516.69;;;1.89;71.64
21276;BME280;36472;52.170;20.884;2024-03-07T05:40:46;101508.91;;;1.89;72.54
21276;BME280;36472;52.170;20.884;2024-03-07T05:43:16;101502.03;;;1.86;71.94
21276;BME280;36472;52.170;20.884;2024-03-07T05:45:46;101503.75;;;1.86;71.76
21276;BME280;36472;52.170;20.884;2024-03-07T05:48:15;101518.38;;;1.93;71.81
21276;BME280;36472;52.170;20.884;2024-03-07T05:50:46;101513.19;;;1.93;73.55
21276;BME280;36472;52.170;20.884;2024-03-07T05:53:15;101514.81;;;2.00;73.81
21276;BME280;36472;52.170;20.884;2024-03-07T05:55:44;101513.91;;;2.04;74.32
21276;BME280;36472;52.170;20.884;2024-03-07T05:58:13;101513.00;;;2.10;72.88
21276;BME280;36472;52.170;20.884;2024-03-07T06:05:17;101521.69;;;2.03;73.14
21276;BME280;36472;52.170;20.884;2024-03-07T06:07:47;101514.78;;;2.05;72.40
21276;BME280;36472;52.170;20.884;2024-03-07T06:10:17;101524.19;;;2.14;73.78
21276;BME280;36472;52.170;20.884;2024-03-07T06:12:46;101523.22;;;2.21;72.60
21276;BME280;36472;52.170;20.884;2024-03-07T06:15:32;101527.47;;;2.25;72.30
21276;BME280;36472;52.170;20.884;2024-03-07T06:18:02;101522.31;;;2.23;71.43
21276;BME280;36472;52.170;20.884;2024-03-07T06:20:33;101523.97;;;2.31;71.80
21276;BME280;36472;52.170;20.884;2024-03-07T06:23:03;101526.88;;;2.04;71.78
21276;BME280;36472;52.170;20.884;2024-03-07T06:25:33;101529.41;;;2.09;71.10
21276;BME280;36472;52.170;20.884;2024-03-07T06:28:06;101530.06;;;2.27;71.70
21276;BME280;36472;52.170;20.884;2024-03-07T06:30:41;101536.00;;;2.35;71.17
21276;BME280;36472;52.170;20.884;2024-03-07T06:33:10;101535.03;;;2.45;70.67
21276;BME280;36472;52.170;20.884;2024-03-07T06:35:42;101535.78;;;2.53;70.36
21276;BME280;36472;52.170;20.884;2024-03-07T06:38:11;101537.56;;;2.48;69.84
21276;BME280;36472;52.170;20.884;2024-03-07T06:40:42;101530.72;;;2.42;69.08
21276;BME280;36472;52.170;20.884;2024-03-07T06:43:11;101528.81;;;2.55;69.87
21276;BME280;36472;52.170;20.884;2024-03-07T06:50:11;101525.41;;;2.53;68.48
21276;BME280;36472;52.170;20.884;2024-03-07T06:53:06;101523.44;;;2.68;68.34
21276;BME280;36472;52.170;20.884;2024-03-07T06:55:37;101529.41;;;2.76;67.93
21276;BME280;36472;52.170;20.884;2024-03-07T06:58:06;101529.31;;;2.82;66.98
21276;BME280;36472;52.170;20.884;2024-03-07T07:00:35;101530.88;;;2.92;66.07
21276;BME280;36472;52.170;20.884;2024-03-07T07:03:06;101524.94;;;2.86;65.79
21276;BME280;36472;52.170;20.884;2024-03-07T07:05:35;101533.28;;;3.05;65.41
21276;BME280;36472;52.170;20.884;2024-03-07T07:08:07;101538.13;;;3.26;65.34
21276;BME280;36472;52.170;20.884;2024-03-07T07:10:36;101540.81;;;3.22;64.44
21276;BME280;36472;52.170;20.884;2024-03-07T07:13:08;101536.22;;;3.37;63.94
21276;BME280;36472;52.170;20.884;2024-03-07T07:15:39;101544.19;;;3.28;63.08
21276;BME280;36472;52.170;20.884;2024-03-07T07:18:08;101540.50;;;3.40;62.59
21276;BME280;36472;52.170;20.884;2024-03-07T07:20:38;101541.88;;;3.61;62.39
21276;BME280;36472;52.170;20.884;2024-03-07T07:23:09;101547.81;;;3.68;62.02
21276;BME280;36472;52.170;20.884;2024-03-07T07:25:38;101542.31;;;3.85;61.69
21276;BME280;36472;52.170;20.884;2024-03-07T07:28:08;101545.66;;;3.90;60.68
21276;BME280;36472;52.170;20.884;2024-03-07T07:30:39;101542.13;;;3.92;59.60
21276;BME280;36472;52.170;20.884;2024-03-07T07:33:12;101546.41;;;3.97;60.33
21276;BME280;36472;52.170;20.884;2024-03-07T07:35:42;101544.41;;;4.09;58.70
21276;BME280;36472;52.170;20.884;2024-03-07T07:38:12;101532.06;;;4.21;59.54
21276;BME280;36472;52.170;20.884;2024-03-07T07:40:43;101537.63;;;4.44;58.83
21276;BME280;36472;52.170;20.884;2024-03-07T07:43:12;101544.72;;;4.38;56.60
21276;BME280;36472;52.170;20.884;2024-03-07T07:45:56;101538.00;;;4.68;57.31
21276;BME280;36472;52.170;20.884;2024-03-07T07:48:25;101552.72;;;4.69;57.39
21276;BME280;36472;52.170;20.884;2024-03-07T07:50:55;101546.47;;;4.76;55.43
21276;BME280;36472;52.170;20.884;2024-03-07T07:53:25;101551.47;;;4.85;55.17
21276;BME280;36472;52.170;20.884;2024-03-07T08:00:29;101542.25;;;5.08;53.49
21276;BME280;36472;52.170;20.884;2024-03-07T08:03:01;101546.22;;;5.24;54.46
21276;BME280;36472;52.170;20.884;2024-03-07T08:05:34;101550.38;;;5.32;52.71
21276;BME280;36472;52.170;20.884;2024-03-07T08:08:06;101549.03;;;5.50;53.56
21276;BME280;36472;52.170;20.884;2024-03-07T08:10:38;101544.09;;;5.73;53.26
21276;BME280;36472;52.170;20.884;2024-03-07T08:13:12;101549.25;;;5.75;53.38
21276;BME280;36472;52.170;20.884;2024-03-07T08:15:42;101539.66;;;5.75;50.93
21276;BME280;36472;52.170;20.884;2024-03-07T08:18:11;101541.16;;;5.84;51.71
21276;BME280;36472;52.170;20.884;2024-03-07T08:20:41;101548.19;;;5.82;50.44
21276;BME280;36472;52.170;20.884;2024-03-07T08:23:12;101540.56;;;5.76;50.56
21276;BME280;36472;52.170;20.884;2024-03-07T08:25:43;101546.03;;;5.99;51.52
21276;BME280;36472;52.170;20.884;2024-03-07T08:28:12;101546.41;;;6.17;51.01
21276;BME280;36472;52.170;20.884;2024-03-07T08:30:41;101544.50;;;6.22;49.64
21276;BME280;36472;52.170;20.884;2024-03-07T08:33:10;101543.63;;;6.22;49.15
21276;BME280;36472;52.170;20.884;2024-03-07T08:35:41;101542.72;;;6.52;50.05
21276;BME280;36472;52.170;20.884;2024-03-07T08:38:10;101546.81;;;6.63;50.07
21276;BME280;36472;52.170;20.884;2024-03-07T08:40:40;101540.53;;;6.68;48.04
21276;BME280;36472;52.170;20.884;2024-03-07T08:43:10;101544.34;;;6.85;48.20
21276;BME280;36472;52.170;20.884;2024-03-07T08:45:40;101543.44;;;6.87;48.14
21276;BME280;36472;52.170;20.884;2024-03-07T08:48:09;101545.00;;;7.20;48.82
21276;BME280;36472;52.170;20.884;2024-03-07T08:50:38;101545.16;;;6.88;47.33
21276;BME280;36472;52.170;20.884;2024-03-07T08:53:08;101541.13;;;6.78;46.97
21276;BME280;36472;52.170;20.884;2024-03-07T08:55:38;101542.63;;;7.12;48.05
21276;BME280;36472;52.170;20.884;2024-03-07T08:58:07;101536.47;;;7.15;46.74
21276;BME280;36472;52.170;20.884;2024-03-07T09:00:38;101534.25;;;7.02;47.58
21276;BME280;36472;52.170;20.884;2024-03-07T09:03:07;101539.72;;;6.95;46.31
21276;BME280;36472;52.170;20.884;2024-03-07T09:05:41;101533.84;;;7.15;46.53
21276;BME280;36472;52.170;20.884;2024-03-07T09:08:10;101530.81;;;7.27;46.34
21276;BME280;36472;52.170;20.884;2024-03-07T09:10:40;101528.72;;;7.38;46.84
21276;BME280;36472;52.170;20.884;2024-03-07T09:13:10;101530.41;;;7.64;46.72
21276;BME280;36472;52.170;20.884;2024-03-07T09:15:41;101536.19;;;7.74;45.53
21276;BME280;36472;52.170;20.884;2024-03-07T09:18:10;101526.09;;;8.59;44.26
21276;BME280;36472;52.170;20.884;2024-03-07T09:20:42;101523.34;;;9.27;41.60
21276;BME280;36472;52.170;20.884;2024-03-07T09:23:11;101518.53;;;9.99;40.71
21276;BME280;36472;52.170;20.884;2024-03-07T09:25:40;101523.28;;;10.85;39.48
21276;BME280;36472;52.170;20.884;2024-03-07T09:28:09;101516.16;;;11.75;37.98
21276;BME280;36472;52.170;20.884;2024-03-07T09:30:38;101518.22;;;12.19;36.45
21276;BME280;36472;52.170;20.884;2024-03-07T09:33:09;101515.19;;;12.43;35.42
21276;BME280;36472;52.170;20.884;2024-03-07T09:35:40;101514.53;;;12.71;35.33
21276;BME280;36472;52.170;20.884;2024-03-07T09:38:09;101519.34;;;12.79;36.00
21276;BME280;36472;52.170;20.884;2024-03-07T09:40:39;101521.25;;;12.61;35.15
21276;BME280;36472;52.170;20.884;2024-03-07T09:43:08;101502.28;;;12.54;36.14
21276;BME280;36472;52.170;20.884;2024-03-07T09:50:16;101535.72;;;11.53;36.05
21276;BME280;36472;52.170;20.884;2024-03-07T09:52:48;101529.50;;;11.02;36.48
21276;BME280;36472;52.170;20.884;2024-03-07T09:55:18;101528.88;;;10.41;36.14
21276;BME280;36472;52.170;20.884;2024-03-07T09:57:50;101529.84;;;10.77;36.97
21276;BME280;36472;52.170;20.884;2024-03-07T10:00:21;101516.81;;;11.10;35.52
21276;BME280;36472;52.170;20.884;2024-03-07T10:02:58;101531.69;;;11.46;35.80
21276;BME280;36472;52.170;20.884;2024-03-07T10:05:31;101524.69;;;11.97;34.98
21276;BME280;36472;52.170;20.884;2024-03-07T10:08:01;101519.19;;;12.50;33.77
21276;BME280;36472;52.170;20.884;2024-03-07T10:10:30;101526.22;;;12.18;33.19
21276;BME280;36472;52.170;20.884;2024-03-07T10:12:59;101522.34;;;12.41;33.03
21276;BME280;36472;52.170;20.884;2024-03-07T10:15:29;101511.38;;;13.10;32.11
21276;BME280;36472;52.170;20.884;2024-03-07T10:17:59;101518.31;;;13.72;32.30
21276;BME280;36472;52.170;20.884;2024-03-07T10:20:31;101507.00;;;13.99;32.84
21276;BME280;36472;52.170;20.884;2024-03-07T10:23:00;101520.19;;;13.56;31.76
21276;BME280;36472;52.170;20.884;2024-03-07T10:25:29;101506.06;;;13.86;32.56
21276;BME280;36472;52.170;20.884;2024-03-07T10:27:58;101513.50;;;14.08;31.76
21276;BME280;36472;52.170;20.884;2024-03-07T10:30:28;101512.09;;;14.16;31.92
21276;BME280;36472;52.170;20.884;2024-03-07T10:32:58;101508.41;;;14.05;30.95
21276;BME280;36472;52.170;20.884;2024-03-07T10:35:31;101502.84;;;13.95;32.25
21276;BME280;36472;52.170;20.884;2024-03-07T10:38:00;101511.34;;;14.41;31.61
21276;BME280;36472;52.170;20.884;2024-03-07T10:40:34;101515.72;;;14.43;30.81
21276;BME280;36472;52.170;20.884;2024-03-07T10:43:10;101515.06;;;14.81;30.55
21276;BME280;36472;52.170;20.884;2024-03-07T10:45:44;101502.81;;;14.92;29.38
21276;BME280;36472;52.170;20.884;2024-03-07T10:48:19;101514.25;;;15.20;30.56
21276;BME280;36472;52.170;20.884;2024-03-07T10:51:06;101517.34;;;15.00;29.62
21276;BME280;36472;52.170;20.884;2024-03-07T10:53:53;101504.53;;;14.66;29.30
21276;BME280;36472;52.170;20.884;2024-03-07T10:56:42;101507.28;;;14.65;29.41
21276;BME280;36472;52.170;20.884;2024-03-07T10:59:18;101514.75;;;14.72;30.19
21276;BME280;36472;52.170;20.884;2024-03-07T11:02:06;101511.38;;;14.83;28.95
21276;BME280;36472;52.170;20.884;2024-03-07T11:04:43;101506.00;;;14.85;29.42
21276;BME280;36472;52.170;20.884;2024-03-07T11:07:15;101510.44;;;15.24;29.42
21276;BME280;36472;52.170;20.884;2024-03-07T11:09:46;101509.34;;;15.14;28.38
21276;BME280;36472;52.170;20.884;2024-03-07T11:12:16;101512.53;;;15.32;28.95
21276;BME280;36472;52.170;20.884;2024-03-07T11:14:47;101504.72;;;15.69;29.18
21276;BME280;36472;52.170;20.884;2024-03-07T11:17:19;101502.06;;;16.44;27.68
21276;BME280;36472;52.170;20.884;2024-03-07T11:19:48;101499.19;;;16.48;27.23
21276;BME280;36472;52.170;20.884;2024-03-07T11:22:31;101503.63;;;17.66;26.67
21276;BME280;36472;52.170;20.884;2024-03-07T11:25:02;101505.91;;;18.50;25.39
21276;BME280;36472;52.170;20.884;2024-03-07T11:27:37;101496.19;;;19.25;24.57
21276;BME280;36472;52.170;20.884;2024-03-07T11:30:10;101492.06;;;20.44;23.53
21276;BME280;36472;52.170;20.884;2024-03-07T11:32:40;101491.00;;;20.76;22.98
21276;BME280;36472;52.170;20.884;2024-03-07T11:35:12;101489.81;;;21.27;21.55
21276;BME280;36472;52.170;20.884;2024-03-07T11:37:44;101484.97;;;21.60;21.59
21276;BME280;36472;52.170;20.884;2024-03-07T11:40:43;101480.66;;;22.60;20.95
21276;BME280;36472;52.170;20.884;2024-03-07T11:43:12;101485.06;;;23.24;20.52
21276;BME280;36472;52.170;20.884;2024-03-07T11:45:41;101476.78;;;22.99;19.89
21276;BME280;36472;52.170;20.884;2024-03-07T11:48:13;101478.22;;;23.29;20.31
21276;BME280;36472;52.170;20.884;2024-03-07T11:50:43;101472.56;;;23.67;20.31
21276;BME280;36472;52.170;20.884;2024-03-07T11:53:14;101476.66;;;23.79;19.70
21276;BME280;36472;52.170;20.884;2024-03-07T11:55:43;101479.59;;;23.60;19.61
21276;BME280;36472;52.170;20.884;2024-03-07T11:58:14;101477.44;;;23.37;19.16
21276;BME280;36472;52.170;20.884;2024-03-07T12:00:45;101479.09;;;23.30;19.44
21276;BME280;36472;52.170;20.884;2024-03-07T12:03:16;101466.59;;;23.21;19.67
21276;BME280;36472;52.170;20.884;2024-03-07T12:05:47;101477.16;;;23.48;19.62
21276;BME280;36472;52.170;20.884;2024-03-07T12:08:18;101468.59;;;23.71;18.99
21276;BME280;36472;52.170;20.884;2024-03-07T12:10:52;101474.53;;;23.57;19.53
21276;BME280;36472;52.170;20.884;2024-03-07T12:13:26;101465.47;;;23.84;18.73
21276;BME280;36472;52.170;20.884;2024-03-07T12:15:56;101473.44;;;24.10;19.67
21276;BME280;36472;52.170;20.884;2024-03-07T12:18:28;101466.88;;;24.55;18.84
21276;BME280;36472;52.170;20.884;2024-03-07T12:20:58;101458.66;;;22.93;20.18
21276;BME280;36472;52.170;20.884;2024-03-07T12:23:32;101463.69;;;21.69;21.90
21276;BME280;36472;52.170;20.884;2024-03-07T12:26:03;101462.03;;;20.02;22.47
21276;BME280;36472;52.170;20.884;2024-03-07T12:28:33;101435.72;;;16.69;25.01
21276;BME280;36472;52.170;20.884;2024-03-07T12:31:03;101459.47;;;15.33;28.55
21276;BME280;36472;52.170;20.884;2024-03-07T12:33:44;101456.88;;;13.97;29.61
21276;BME280;36472;52.170;20.884;2024-03-07T12:36:20;101451.22;;;13.32;31.49
21276;BME280;36472;52.170;20.884;2024-03-07T12:38:54;101451.50;;;12.81;31.87
21276;BME280;36472;52.170;20.884;2024-03-07T12:41:24;101438.31;;;12.19;32.85
21276;BME280;36472;52.170;20.884;2024-03-07T12:43:54;101452.34;;;11.70;32.65
21276;BME280;36472;52.170;20.884;2024-03-07T12:46:22;101441.31;;;11.46;34.32
21276;BME280;36472;52.170;20.884;2024-03-07T12:48:51;101444.06;;;11.27;34.30
21276;BME280;36472;52.170;20.884;2024-03-07T12:51:23;101446.16;;;11.02;35.83
21276;BME280;36472;52.170;20.884;2024-03-07T12:53:54;101440.72;;;10.71;35.87
21276;BME280;36472;52.170;20.884;2024-03-07T12:56:22;101436.25;;;10.36;35.83
21276;BME280;36472;52.170;20.884;2024-03-07T12:58:52;101432.41;;;10.05;36.41
21276;BME280;36472;52.170;20.884;2024-03-07T13:01:22;101440.09;;;9.91;36.16
21276;BME280;36472;52.170;20.884;2024-03-07T13:03:51;101435.09;;;9.66;36.25
21276;BME280;36472;52.170;20.884;2024-03-07T13:06:20;101435.78;;;9.50;36.82
21276;BME280;36472;52.170;20.884;2024-03-07T13:08:56;101423.63;;;9.48;38.32
21276;BME280;36472;52.170;20.884;2024-03-07T13:11:25;101428.66;;;9.33;38.13
21276;BME280;36472;52.170;20.884;2024-03-07T13:13:58;101428.91;;;9.27;37.98
21276;BME280;36472;52.170;20.884;2024-03-07T13:16:27;101426.63;;;9.20;38.35
21276;BME280;36472;52.170;20.884;2024-03-07T13:19:00;101428.72;;;9.11;38.44
21276;BME280;36472;52.170;20.884;2024-03-07T13:21:32;101418.88;;;8.96;37.97
21276;BME280;36472;52.170;20.884;2024-03-07T13:28:37;101410.56;;;8.86;39.27
21276;BME280;36472;52.170;20.884;2024-03-07T13:31:06;101410.38;;;8.91;39.59
21276;BME280;36472;52.170;20.884;2024-03-07T13:33:35;101414.88;;;8.87;39.87
21276;BME280;36472;52.170;20.884;2024-03-07T13:36:05;101408.66;;;8.90;39.64
21276;BME280;36472;52.170;20.884;2024-03-07T13:38:35;101412.09;;;9.12;40.32
21276;BME280;36472;52.170;20.884;2024-03-07T13:41:06;101404.88;;;9.57;39.59
21276;BME280;36472;52.170;20.884;2024-03-07T13:43:35;101406.06;;;9.50;39.02